sensor_id;sensor_type;location;lat;lon;timestamp;temperature;humidity
22503;DHT22;11418;48.118;9.992;2022-09-27T00:03:48;11.00;99.90
22503;DHT22;11418;48.118;9.992;2022-09-27T00:07:51;10.80;99.90
22503;DHT22;11418;48.118;9.992;2022-09-27T00:11:52;10.60;99.90
22503;DHT22;11418;48.118;9.992;2022-09-27T00:15:57;10.40;99.90
22503;DHT22;11418;48.118;9.992;2022-09-27T00:19:58;10.20;99.90
22503;DHT22;11418;48.118;9.992;2022-09-27T00:23:59;10.10;99.90
22503;DHT22;11418;48.118;9.992;2022-09-27T00:28:00;10.10;99.90
22503;DHT22;11418;48.118;9.992;2022-09-27T00:32:00;10.10;99.90
22503;DHT22;11418;48.118;9.992;2022-09-27T00:36:05;10.10;99.90
22503;DHT22;11418;48.118;9.992;2022-09-27T00:40:06;10.00;99.90
22503;DHT22;11418;48.118;9.992;2022-09-27T00:48:35;9.90;99.90
22503;DHT22;11418;48.118;9.992;2022-09-27T00:52:47;9.80;99.90
22503;DHT22;11418;48.118;9.992;2022-09-27T00:56:53;9.70;99.90
22503;DHT22;11418;48.118;9.992;2022-09-27T01:00:56;9.60;99.90
22503;DHT22;11418;48.118;9.992;2022-09-27T01:04:58;9.60;99.90
22503;DHT22;11418;48.118;9.992;2022-09-27T01:09:00;9.60;99.90
22503;DHT22;11418;48.118;9.992;2022-09-27T01:13:18;9.50;99.90
22503;DHT22;11418;48.118;9.992;2022-09-27T01:17:47;9.50;99.90
22503;DHT22;11418;48.118;9.992;2022-09-27T01:21:59;9.40;99.90
22503;DHT22;11418;48.118;9.992;2022-09-27T01:30:16;9.50;99.90
22503;DHT22;11418;48.118;9.992;2022-09-27T01:34:30;9.50;99.90
22503;DHT22;11418;48.118;9.992;2022-09-27T01:42:55;9.40;99.90
22503;DHT22;11418;48.118;9.992;2022-09-27T01:47:03;9.40;99.90
22503;DHT22;11418;48.118;9.992;2022-09-27T01:51:08;9.40;99.90
22503;DHT22;11418;48.118;9.992;2022-09-27T01:55:12;9.40;99.90
22503;DHT22;11418;48.118;9.992;2022-09-27T01:59:26;9.50;99.90
22503;DHT22;11418;48.118;9.992;2022-09-27T02:03:43;9.40;99.90
22503;DHT22;11418;48.118;9.992;2022-09-27T02:07:55;9.50;99.90
22503;DHT22;11418;48.118;9.992;2022-09-27T02:12:02;9.40;99.90
22503;DHT22;11418;48.118;9.992;2022-09-27T02:20:36;9.50;99.90
22503;DHT22;11418;48.118;9.992;2022-09-27T02:24:50;9.40;99.90
22503;DHT22;11418;48.118;9.992;2022-09-27T02:33:07;9.50;99.90
22503;DHT22;11418;48.118;9.992;2022-09-27T02:37:07;9.50;99.90
22503;DHT22;11418;48.118;9.992;2022-09-27T02:41:19;9.50;99.90
22503;DHT22;11418;48.118;9.992;2022-09-27T02:45:21;9.50;99.90
22503;DHT22;11418;48.118;9.992;2022-09-27T02:49:43;9.50;99.90
22503;DHT22;11418;48.118;9.992;2022-09-27T03:02:47;9.60;99.90
22503;DHT22;11418;48.118;9.992;2022-09-27T03:06:49;9.60;99.90
22503;DHT22;11418;48.118;9.992;2022-09-27T03:10:52;9.60;99.90
22503;DHT22;11418;48.118;9.992;2022-09-27T03:14:58;9.50;99.90
22503;DHT22;11418;48.118;9.992;2022-09-27T03:18:59;9.40;99.90
22503;DHT22;11418;48.118;9.992;2022-09-27T03:22:59;9.50;99.90
22503;DHT22;11418;48.118;9.992;2022-09-27T03:27:00;9.50;99.90
22503;DHT22;11418;48.118;9.992;2022-09-27T03:31:01;9.40;99.90
22503;DHT22;11418;48.118;9.992;2022-09-27T03:35:01;9.30;99.90
22503;DHT22;11418;48.118;9.992;2022-09-27T03:39:02;9.30;99.90
22503;DHT22;11418;48.118;9.992;2022-09-27T03:43:03;9.20;99.90
22503;DHT22;11418;48.118;9.992;2022-09-27T03:47:03;9.30;99.90
22503;DHT22;11418;48.118;9.992;2022-09-27T03:51:04;9.40;99.90
22503;DHT22;11418;48.118;9.992;2022-09-27T03:55:05;9.40;99.90
22503;DHT22;11418;48.118;9.992;2022-09-27T03:59:06;9.30;99.90
22503;DHT22;11418;48.118;9.992;2022-09-27T04:03:06;9.20;99.90
22503;DHT22;11418;48.118;9.992;2022-09-27T04:07:07;9.30;99.90
22503;DHT22;11418;48.118;9.992;2022-09-27T04:11:09;9.20;99.90
22503;DHT22;11418;48.118;9.992;2022-09-27T04:15:10;9.20;99.90
22503;DHT22;11418;48.118;9.992;2022-09-27T04:19:11;9.20;99.90
22503;DHT22;11418;48.118;9.992;2022-09-27T04:23:11;9.20;99.90
22503;DHT22;11418;48.118;9.992;2022-09-27T04:27:12;9.30;99.90
22503;DHT22;11418;48.118;9.992;2022-09-27T04:31:12;9.20;99.90
22503;DHT22;11418;48.118;9.992;2022-09-27T04:35:13;9.30;99.90
22503;DHT22;11418;48.118;9.992;2022-09-27T04:39:32;9.30;99.90
22503;DHT22;11418;48.118;9.992;2022-09-27T04:43:34;9.10;99.90
22503;DHT22;11418;48.118;9.992;2022-09-27T04:47:34;9.10;99.90
22503;DHT22;11418;48.118;9.992;2022-09-27T04:51:35;9.00;99.90
22503;DHT22;11418;48.118;9.992;2022-09-27T04:55:35;8.80;99.90
22503;DHT22;11418;48.118;9.992;2022-09-27T04:59:36;8.80;99.90
22503;DHT22;11418;48.118;9.992;2022-09-27T05:03:36;8.60;99.90
22503;DHT22;11418;48.118;9.992;2022-09-27T05:07:37;8.50;99.90
22503;DHT22;11418;48.118;9.992;2022-09-27T05:11:38;8.60;99.90
22503;DHT22;11418;48.118;9.992;2022-09-27T05:15:40;8.60;99.90
22503;DHT22;11418;48.118;9.992;2022-09-27T05:19:40;8.70;99.90
22503;DHT22;11418;48.118;9.992;2022-09-27T05:23:41;8.60;99.90
22503;DHT22;11418;48.118;9.992;2022-09-27T05:27:41;8.70;99.90
22503;DHT22;11418;48.118;9.992;2022-09-27T05:31:42;8.60;99.90
22503;DHT22;11418;48.118;9.992;2022-09-27T05:35:43;8.60;99.90
22503;DHT22;11418;48.118;9.992;2022-09-27T05:39:50;8.60;99.90
22503;DHT22;11418;48.118;9.992;2022-09-27T05:43:50;8.50;99.90
22503;DHT22;11418;48.118;9.992;2022-09-27T05:47:56;8.60;99.90
22503;DHT22;11418;48.118;9.992;2022-09-27T05:51:57;8.80;99.90
22503;DHT22;11418;48.118;9.992;2022-09-27T05:56:00;8.90;99.90
22503;DHT22;11418;48.118;9.992;2022-09-27T06:00:02;9.10;99.90
22503;DHT22;11418;48.118;9.992;2022-09-27T06:04:03;9.10;99.90
22503;DHT22;11418;48.118;9.992;2022-09-27T06:08:08;9.20;99.90
22503;DHT22;11418;48.118;9.992;2022-09-27T06:12:08;9.30;99.90
22503;DHT22;11418;48.118;9.992;2022-09-27T06:16:11;9.80;99.90
22503;DHT22;11418;48.118;9.992;2022-09-27T06:20:11;10.10;99.90
22503;DHT22;11418;48.118;9.992;2022-09-27T06:24:12;10.10;99.90
22503;DHT22;11418;48.118;9.992;2022-09-27T06:28:13;10.00;99.90
22503;DHT22;11418;48.118;9.992;2022-09-27T06:32:13;10.10;99.90
22503;DHT22;11418;48.118;9.992;2022-09-27T06:36:14;9.90;99.90
22503;DHT22;11418;48.118;9.992;2022-09-27T06:40:14;9.90;99.90
22503;DHT22;11418;48.118;9.992;2022-09-27T06:44:15;9.90;99.90
22503;DHT22;11418;48.118;9.992;2022-09-27T06:48:16;10.00;99.90
22503;DHT22;11418;48.118;9.992;2022-09-27T06:52:16;10.10;99.90
22503;DHT22;11418;48.118;9.992;2022-09-27T06:56:17;9.90;99.90
22503;DHT22;11418;48.118;9.992;2022-09-27T07:00:17;9.70;99.90
22503;DHT22;11418;48.118;9.992;2022-09-27T07:04:25;9.40;99.90
22503;DHT22;11418;48.118;9.992;2022-09-27T07:08:26;9.20;99.90
22503;DHT22;11418;48.118;9.992;2022-09-27T07:12:28;8.90;99.90
22503;DHT22;11418;48.118;9.992;2022-09-27T07:16:28;8.80;99.90
22503;DHT22;11418;48.118;9.992;2022-09-27T07:20:29;8.80;99.90
22503;DHT22;11418;48.118;9.992;2022-09-27T07:24:30;9.00;99.90
22503;DHT22;11418;48.118;9.992;2022-09-27T07:28:31;9.10;99.90
22503;DHT22;11418;48.118;9.992;2022-09-27T07:32:32;9.10;99.90
22503;DHT22;11418;48.118;9.992;2022-09-27T07:36:32;9.40;99.90
22503;DHT22;11418;48.118;9.992;2022-09-27T07:40:35;9.30;99.90
22503;DHT22;11418;48.118;9.992;2022-09-27T07:44:36;9.30;99.90
22503;DHT22;11418;48.118;9.992;2022-09-27T07:48:37;9.20;99.90
22503;DHT22;11418;48.118;9.992;2022-09-27T07:52:38;9.60;99.90
22503;DHT22;11418;48.118;9.992;2022-09-27T07:56:40;10.00;99.90
22503;DHT22;11418;48.118;9.992;2022-09-27T08:00:40;10.50;99.90
22503;DHT22;11418;48.118;9.992;2022-09-27T08:04:42;11.20;99.90
22503;DHT22;11418;48.118;9.992;2022-09-27T08:08:48;11.20;99.90
22503;DHT22;11418;48.118;9.992;2022-09-27T08:12:49;11.10;99.90
22503;DHT22;11418;48.118;9.992;2022-09-27T08:16:50;11.10;99.90
22503;DHT22;11418;48.118;9.992;2022-09-27T08:20:50;10.80;99.90
22503;DHT22;11418;48.118;9.992;2022-09-27T08:24:51;10.50;99.90
22503;DHT22;11418;48.118;9.992;2022-09-27T08:28:51;10.30;99.90
22503;DHT22;11418;48.118;9.992;2022-09-27T08:32:56;10.40;99.90
22503;DHT22;11418;48.118;9.992;2022-09-27T08:36:57;10.30;99.90
22503;DHT22;11418;48.118;9.992;2022-09-27T08:41:25;10.60;99.90
22503;DHT22;11418;48.118;9.992;2022-09-27T08:45:33;10.80;99.90
22503;DHT22;11418;48.118;9.992;2022-09-27T08:49:42;11.00;99.90
22503;DHT22;11418;48.118;9.992;2022-09-27T08:53:52;11.50;99.90
22503;DHT22;11418;48.118;9.992;2022-09-27T08:57:57;11.80;99.90
22503;DHT22;11418;48.118;9.992;2022-09-27T09:01:58;12.00;99.90
22503;DHT22;11418;48.118;9.992;2022-09-27T09:06:27;11.70;99.90
22503;DHT22;11418;48.118;9.992;2022-09-27T09:10:47;11.80;99.90
22503;DHT22;11418;48.118;9.992;2022-09-27T09:15:43;11.70;99.90
22503;DHT22;11418;48.118;9.992;2022-09-27T09:29:16;12.10;99.90
22503;DHT22;11418;48.118;9.992;2022-09-27T09:33:28;12.40;99.90
22503;DHT22;11418;48.118;9.992;2022-09-27T09:37:38;12.40;99.90
22503;DHT22;11418;48.118;9.992;2022-09-27T09:41:49;12.20;99.90
22503;DHT22;11418;48.118;9.992;2022-09-27T09:46:08;11.90;99.90
22503;DHT22;11418;48.118;9.992;2022-09-27T09:50:21;12.90;99.90
22503;DHT22;11418;48.118;9.992;2022-09-27T09:54:29;13.30;99.90
22503;DHT22;11418;48.118;9.992;2022-09-27T09:58:41;12.90;99.90
22503;DHT22;11418;48.118;9.992;2022-09-27T10:02:45;13.50;99.90
22503;DHT22;11418;48.118;9.992;2022-09-27T10:06:46;14.40;99.90
22503;DHT22;11418;48.118;9.992;2022-09-27T10:10:47;13.80;99.90
22503;DHT22;11418;48.118;9.992;2022-09-27T10:14:49;13.40;99.90
22503;DHT22;11418;48.118;9.992;2022-09-27T10:18:56;12.80;99.90
22503;DHT22;11418;48.118;9.992;2022-09-27T10:23:14;12.10;99.90
22503;DHT22;11418;48.118;9.992;2022-09-27T10:27:15;11.70;99.90
22503;DHT22;11418;48.118;9.992;2022-09-27T10:31:17;11.30;99.90
22503;DHT22;11418;48.118;9.992;2022-09-27T10:39:28;11.60;99.90
22503;DHT22;11418;48.118;9.992;2022-09-27T10:43:34;11.80;99.90
22503;DHT22;11418;48.118;9.992;2022-09-27T10:47:35;12.10;99.90
22503;DHT22;11418;48.118;9.992;2022-09-27T10:51:36;12.30;99.90
22503;DHT22;11418;48.118;9.992;2022-09-27T10:55:38;12.40;99.90
22503;DHT22;11418;48.118;9.992;2022-09-27T10:59:44;12.50;99.90
22503;DHT22;11418;48.118;9.992;2022-09-27T11:03:55;12.60;99.90
22503;DHT22;11418;48.118;9.992;2022-09-27T11:07:59;12.80;99.90
22503;DHT22;11418;48.118;9.992;2022-09-27T11:12:08;13.00;99.90
22503;DHT22;11418;48.118;9.992;2022-09-27T11:16:24;13.30;99.90
22503;DHT22;11418;48.118;9.992;2022-09-27T11:20:36;13.40;99.90
22503;DHT22;11418;48.118;9.992;2022-09-27T11:24:43;15.00;99.90
22503;DHT22;11418;48.118;9.992;2022-09-27T11:29:46;16.80;99.90
22503;DHT22;11418;48.118;9.992;2022-09-27T11:42:30;14.70;99.90
22503;DHT22;11418;48.118;9.992;2022-09-27T11:46:38;14.90;99.90
22503;DHT22;11418;48.118;9.992;2022-09-27T11:55:34;14.90;99.90
22503;DHT22;11418;48.118;9.992;2022-09-27T12:12:51;16.10;99.90
22503;DHT22;11418;48.118;9.992;2022-09-27T12:16:53;16.40;99.90
22503;DHT22;11418;48.118;9.992;2022-09-27T12:20:58;17.30;99.90
22503;DHT22;11418;48.118;9.992;2022-09-27T12:25:00;17.70;99.90
22503;DHT22;11418;48.118;9.992;2022-09-27T12:29:16;16.90;99.90
22503;DHT22;11418;48.118;9.992;2022-09-27T12:33:30;18.10;99.90
22503;DHT22;11418;48.118;9.992;2022-09-27T12:47:14;18.70;99.90
22503;DHT22;11418;48.118;9.992;2022-09-27T12:51:20;19.40;99.90
22503;DHT22;11418;48.118;9.992;2022-09-27T12:55:46;20.20;99.90
22503;DHT22;11418;48.118;9.992;2022-09-27T13:00:57;21.50;99.90
22503;DHT22;11418;48.118;9.992;2022-09-27T13:12:53;16.70;99.90
22503;DHT22;11418;48.118;9.992;2022-09-27T13:16:54;16.10;99.90
22503;DHT22;11418;48.118;9.992;2022-09-27T13:20:55;15.40;99.90
22503;DHT22;11418;48.118;9.992;2022-09-27T13:24:56;15.10;99.90
22503;DHT22;11418;48.118;9.992;2022-09-27T13:28:59;14.80;99.90
22503;DHT22;11418;48.118;9.992;2022-09-27T13:42:07;13.50;99.90
22503;DHT22;11418;48.118;9.992;2022-09-27T13:46:15;13.10;99.90
22503;DHT22;11418;48.118;9.992;2022-09-27T13:50:45;12.90;99.90
22503;DHT22;11418;48.118;9.992;2022-09-27T13:54:55;12.60;99.90
22503;DHT22;11418;48.118;9.992;2022-09-27T13:59:02;12.50;99.90
22503;DHT22;11418;48.118;9.992;2022-09-27T14:03:13;12.40;99.90
22503;DHT22;11418;48.118;9.992;2022-09-27T14:07:17;12.10;99.90
22503;DHT22;11418;48.118;9.992;2022-09-27T14:11:31;11.50;99.90
22503;DHT22;11418;48.118;9.992;2022-09-27T14:15:33;10.70;99.90
22503;DHT22;11418;48.118;9.992;2022-09-27T14:19:38;10.30;99.90
22503;DHT22;11418;48.118;9.992;2022-09-27T14:23:40;10.70;99.90
22503;DHT22;11418;48.118;9.992;2022-09-27T14:27:40;12.50;99.90
22503;DHT22;11418;48.118;9.992;2022-09-27T14:31:41;12.40;99.90
22503;DHT22;11418;48.118;9.992;2022-09-27T14:35:47;11.80;99.90
22503;DHT22;11418;48.118;9.992;2022-09-27T14:40:18;11.40;99.90
22503;DHT22;11418;48.118;9.992;2022-09-27T14:44:20;11.20;99.90
22503;DHT22;11418;48.118;9.992;2022-09-27T14:52:25;11.10;99.90
22503;DHT22;11418;48.118;9.992;2022-09-27T14:56:30;11.20;99.90
22503;DHT22;11418;48.118;9.992;2022-09-27T15:00:32;11.20;99.90
22503;DHT22;11418;48.118;9.992;2022-09-27T15:04:35;11.10;99.90
22503;DHT22;11418;48.118;9.992;2022-09-27T15:08:37;11.00;99.90
22503;DHT22;11418;48.118;9.992;2022-09-27T15:12:38;11.50;99.90
22503;DHT22;11418;48.118;9.992;2022-09-27T15:16:39;11.70;99.90
22503;DHT22;11418;48.118;9.992;2022-09-27T15:20:52;11.40;99.90
22503;DHT22;11418;48.118;9.992;2022-09-27T15:25:10;11.10;99.90
22503;DHT22;11418;48.118;9.992;2022-09-27T15:29:24;10.70;99.90
22503;DHT22;11418;48.118;9.992;2022-09-27T15:33:28;10.50;99.90
22503;DHT22;11418;48.118;9.992;2022-09-27T15:37:36;10.50;99.90
22503;DHT22;11418;48.118;9.992;2022-09-27T15:42:00;10.40;99.90
22503;DHT22;11418;48.118;9.992;2022-09-27T15:46:03;10.50;99.90
22503;DHT22;11418;48.118;9.992;2022-09-27T15:54:23;10.20;99.90
22503;DHT22;11418;48.118;9.992;2022-09-27T15:58:24;10.10;99.90
22503;DHT22;11418;48.118;9.992;2022-09-27T16:02:25;10.10;99.90
22503;DHT22;11418;48.118;9.992;2022-09-27T16:06:27;10.10;99.90
22503;DHT22;11418;48.118;9.992;2022-09-27T16:10:52;10.00;99.90
22503;DHT22;11418;48.118;9.992;2022-09-27T16:14:55;10.00;99.90
22503;DHT22;11418;48.118;9.992;2022-09-27T16:18:55;9.90;99.90
22503;DHT22;11418;48.118;9.992;2022-09-27T16:22:56;9.90;99.90
22503;DHT22;11418;48.118;9.992;2022-09-27T16:26:58;9.80;99.90
22503;DHT22;11418;48.118;9.992;2022-09-27T16:31:05;9.80;99.90
22503;DHT22;11418;48.118;9.992;2022-09-27T16:35:06;9.70;99.90
22503;DHT22;11418;48.118;9.992;2022-09-27T16:39:12;9.60;99.90
22503;DHT22;11418;48.118;9.992;2022-09-27T16:43:13;9.60;99.90
22503;DHT22;11418;48.118;9.992;2022-09-27T16:47:13;9.60;99.90
22503;DHT22;11418;48.118;9.992;2022-09-27T16:51:19;9.50;99.90
22503;DHT22;11418;48.118;9.992;2022-09-27T16:55:38;9.30;99.90
22503;DHT22;11418;48.118;9.992;2022-09-27T16:59:39;9.30;99.90
22503;DHT22;11418;48.118;9.992;2022-09-27T17:03:39;9.20;99.90
22503;DHT22;11418;48.118;9.992;2022-09-27T17:07:40;9.20;99.90
22503;DHT22;11418;48.118;9.992;2022-09-27T17:11:40;9.00;99.90
22503;DHT22;11418;48.118;9.992;2022-09-27T17:15:41;9.00;99.90
22503;DHT22;11418;48.118;9.992;2022-09-27T17:19:42;8.90;99.90
22503;DHT22;11418;48.118;9.992;2022-09-27T17:23:44;8.90;99.90
22503;DHT22;11418;48.118;9.992;2022-09-27T17:27:44;9.10;99.90
22503;DHT22;11418;48.118;9.992;2022-09-27T17:31:45;9.10;99.90
22503;DHT22;11418;48.118;9.992;2022-09-27T17:35:45;9.00;99.90
22503;DHT22;11418;48.118;9.992;2022-09-27T17:39:46;8.90;99.90
22503;DHT22;11418;48.118;9.992;2022-09-27T17:43:46;8.90;99.90
22503;DHT22;11418;48.118;9.992;2022-09-27T17:47:50;8.60;99.90
22503;DHT22;11418;48.118;9.992;2022-09-27T17:52:26;8.40;99.90
22503;DHT22;11418;48.118;9.992;2022-09-27T17:56:28;8.30;99.90
22503;DHT22;11418;48.118;9.992;2022-09-27T18:00:28;8.30;99.90
22503;DHT22;11418;48.118;9.992;2022-09-27T18:04:29;8.50;99.90
22503;DHT22;11418;48.118;9.992;2022-09-27T18:08:29;8.70;99.90
22503;DHT22;11418;48.118;9.992;2022-09-27T18:12:31;8.70;99.90
22503;DHT22;11418;48.118;9.992;2022-09-27T18:16:38;8.90;99.90
22503;DHT22;11418;48.118;9.992;2022-09-27T18:20:40;8.90;99.90
22503;DHT22;11418;48.118;9.992;2022-09-27T18:24:40;8.90;99.90
22503;DHT22;11418;48.118;9.992;2022-09-27T18:28:41;8.80;99.90
22503;DHT22;11418;48.118;9.992;2022-09-27T18:32:41;8.80;99.90
22503;DHT22;11418;48.118;9.992;2022-09-27T18:36:42;8.80;99.90
22503;DHT22;11418;48.118;9.992;2022-09-27T18:40:43;8.90;99.90
22503;DHT22;11418;48.118;9.992;2022-09-27T18:44:44;8.90;99.90
22503;DHT22;11418;48.118;9.992;2022-09-27T18:48:44;8.90;99.90
22503;DHT22;11418;48.118;9.992;2022-09-27T18:52:45;8.80;99.90
22503;DHT22;11418;48.118;9.992;2022-09-27T18:56:47;8.80;99.90
22503;DHT22;11418;48.118;9.992;2022-09-27T19:00:48;8.80;99.90
22503;DHT22;11418;48.118;9.992;2022-09-27T19:04:48;8.80;99.90
22503;DHT22;11418;48.118;9.992;2022-09-27T19:08:53;8.90;99.90
22503;DHT22;11418;48.118;9.992;2022-09-27T19:12:57;8.80;99.90
22503;DHT22;11418;48.118;9.992;2022-09-27T19:17:00;8.80;99.90
22503;DHT22;11418;48.118;9.992;2022-09-27T19:21:07;8.80;99.90
22503;DHT22;11418;48.118;9.992;2022-09-27T19:25:08;8.80;99.90
22503;DHT22;11418;48.118;9.992;2022-09-27T19:29:09;8.80;99.90
22503;DHT22;11418;48.118;9.992;2022-09-27T19:33:10;8.70;99.90
22503;DHT22;11418;48.118;9.992;2022-09-27T19:37:11;8.70;99.90
22503;DHT22;11418;48.118;9.992;2022-09-27T19:41:13;8.80;99.90
22503;DHT22;11418;48.118;9.992;2022-09-27T19:45:14;8.80;99.90
22503;DHT22;11418;48.118;9.992;2022-09-27T19:49:14;8.90;99.90
22503;DHT22;11418;48.118;9.992;2022-09-27T19:53:15;8.80;99.90
22503;DHT22;11418;48.118;9.992;2022-09-27T19:57:15;8.70;99.90
22503;DHT22;11418;48.118;9.992;2022-09-27T20:01:22;8.70;99.90
22503;DHT22;11418;48.118;9.992;2022-09-27T20:05:22;8.70;99.90
22503;DHT22;11418;48.118;9.992;2022-09-27T20:09:23;8.70;99.90
22503;DHT22;11418;48.118;9.992;2022-09-27T20:13:25;8.60;99.90
22503;DHT22;11418;48.118;9.992;2022-09-27T20:17:30;8.60;99.90
22503;DHT22;11418;48.118;9.992;2022-09-27T20:21:31;8.60;99.90
22503;DHT22;11418;48.118;9.992;2022-09-27T20:25:32;8.60;99.90
22503;DHT22;11418;48.118;9.992;2022-09-27T20:29:33;8.50;99.90
22503;DHT22;11418;48.118;9.992;2022-09-27T20:33:33;8.70;99.90
22503;DHT22;11418;48.118;9.992;2022-09-27T20:37:43;8.80;99.90
22503;DHT22;11418;48.118;9.992;2022-09-27T20:41:45;8.90;99.90
22503;DHT22;11418;48.118;9.992;2022-09-27T20:45:45;8.90;99.90
22503;DHT22;11418;48.118;9.992;2022-09-27T20:49:46;8.90;99.90
22503;DHT22;11418;48.118;9.992;2022-09-27T20:53:47;9.00;99.90
22503;DHT22;11418;48.118;9.992;2022-09-27T20:57:51;9.00;99.90
22503;DHT22;11418;48.118;9.992;2022-09-27T21:01:51;9.10;99.90
22503;DHT22;11418;48.118;9.992;2022-09-27T21:05:56;9.10;99.90
22503;DHT22;11418;48.118;9.992;2022-09-27T21:09:57;9.10;99.90
22503;DHT22;11418;48.118;9.992;2022-09-27T21:13:57;9.20;99.90
22503;DHT22;11418;48.118;9.992;2022-09-27T21:17:58;9.10;99.90
22503;DHT22;11418;48.118;9.992;2022-09-27T21:21:58;9.20;99.90
22503;DHT22;11418;48.118;9.992;2022-09-27T21:30:12;9.10;99.90
22503;DHT22;11418;48.118;9.992;2022-09-27T21:34:12;9.00;99.90
22503;DHT22;11418;48.118;9.992;2022-09-27T21:38:13;9.00;99.90
22503;DHT22;11418;48.118;9.992;2022-09-27T21:42:13;9.00;99.90
22503;DHT22;11418;48.118;9.992;2022-09-27T21:46:19;9.00;99.90
22503;DHT22;11418;48.118;9.992;2022-09-27T21:50:21;9.00;99.90
22503;DHT22;11418;48.118;9.992;2022-09-27T21:54:22;8.90;99.90
22503;DHT22;11418;48.118;9.992;2022-09-27T21:58:23;8.70;99.90
22503;DHT22;11418;48.118;9.992;2022-09-27T22:02:23;8.70;99.90
22503;DHT22;11418;48.118;9.992;2022-09-27T22:06:26;8.70;99.90
22503;DHT22;11418;48.118;9.992;2022-09-27T22:10:27;8.80;99.90
22503;DHT22;11418;48.118;9.992;2022-09-27T22:14:27;8.90;99.90
22503;DHT22;11418;48.118;9.992;2022-09-27T22:18:28;9.00;99.90
22503;DHT22;11418;48.118;9.992;2022-09-27T22:22:29;9.00;99.90
22503;DHT22;11418;48.118;9.992;2022-09-27T22:26:31;9.10;99.90
22503;DHT22;11418;48.118;9.992;2022-09-27T22:30:32;9.10;99.90
22503;DHT22;11418;48.118;9.992;2022-09-27T22:34:33;9.10;99.90
22503;DHT22;11418;48.118;9.992;2022-09-27T22:38:34;9.10;99.90
22503;DHT22;11418;48.118;9.992;2022-09-27T22:42:34;9.10;99.90
22503;DHT22;11418;48.118;9.992;2022-09-27T22:46:35;9.00;99.90
22503;DHT22;11418;48.118;9.992;2022-09-27T22:50:35;8.90;99.90
22503;DHT22;11418;48.118;9.992;2022-09-27T22:54:36;8.90;99.90
22503;DHT22;11418;48.118;9.992;2022-09-27T22:58:37;8.90;99.90
22503;DHT22;11418;48.118;9.992;2022-09-27T23:02:37;8.90;99.90
22503;DHT22;11418;48.118;9.992;2022-09-27T23:06:38;8.80;99.90
22503;DHT22;11418;48.118;9.992;2022-09-27T23:10:39;8.90;99.90
22503;DHT22;11418;48.118;9.992;2022-09-27T23:14:40;8.80;99.90
22503;DHT22;11418;48.118;9.992;2022-09-27T23:18:41;8.90;99.90
22503;DHT22;11418;48.118;9.992;2022-09-27T23:22:42;9.00;99.90
22503;DHT22;11418;48.118;9.992;2022-09-27T23:26:42;8.90;99.90
22503;DHT22;11418;48.118;9.992;2022-09-27T23:30:43;8.90;99.90
22503;DHT22;11418;48.118;9.992;2022-09-27T23:34:44;8.90;99.90
22503;DHT22;11418;48.118;9.992;2022-09-27T23:38:46;8.90;99.90
22503;DHT22;11418;48.118;9.992;2022-09-27T23:42:47;9.10;99.90
22503;DHT22;11418;48.118;9.992;2022-09-27T23:46:48;9.00;99.90
22503;DHT22;11418;48.118;9.992;2022-09-27T23:50:49;9.00;99.90
22503;DHT22;11418;48.118;9.992;2022-09-27T23:54:49;9.10;99.90
22503;DHT22;11418;48.118;9.992;2022-09-27T23:58:50;9.20;99.90
